Time;durP1;ratioP1;P1;durP2;ratioP2;P2;SDS_P1;SDS_P2;PMS_P1;PMS_P2;Temp;Humidity;BMP_temperature;BMP_pressure;BME280_temperature;BME280_humidity;BME280_pressure;Samples;Min_cycle;Max_cycle;Signal;HPM_P1;HPM_P2
2023/09/30 00:00:42;;;;;;;21.08;4.25;;;;;;;11.86;100.00;101492.50;5045411;28;20036;-77
2023/09/30 00:03:07;;;;;;;14.70;3.63;;;;;;;11.86;100.00;101489.81;5045679;28;20039;-76
2023/09/30 00:05:32;;;;;;;21.87;4.37;;;;;;;11.88;100.00;101495.06;5038389;28;20402;-78
2023/09/30 00:07:58;;;;;;;18.87;4.87;;;;;;;11.88;100.00;101497.72;5042294;28;20504;-78
2023/09/30 00:10:23;;;;;;;23.17;4.63;;;;;;;11.76;100.00;101499.75;5043851;28;20043;-75
2023/09/30 00:12:49;;;;;;;13.60;4.23;;;;;;;11.79;100.00;101512.81;5044220;28;20030;-75
2023/09/30 00:15:14;;;;;;;12.60;3.80;;;;;;;11.71;100.00;101502.06;5042142;28;20053;-77
2023/09/30 00:17:39;;;;;;;23.40;5.43;;;;;;;11.71;100.00;101508.25;5042838;28;20025;-76
2023/09/30 00:20:05;;;;;;;18.83;5.57;;;;;;;11.75;100.00;101531.03;5046154;28;20289;-79
2023/09/30 00:22:31;;;;;;;17.20;4.40;;;;;;;11.69;100.00;101520.91;5046103;28;20033;-79
2023/09/30 00:24:56;;;;;;;42.57;4.70;;;;;;;11.79;100.00;101532.38;5052992;28;20035;-79
2023/09/30 00:27:22;;;;;;;19.55;5.22;;;;;;;11.69;100.00;101531.63;5052845;28;20090;-77
2023/09/30 00:29:47;;;;;;;24.87;4.73;;;;;;;11.60;100.00;101529.84;5046579;28;20052;-79
2023/09/30 00:32:12;;;;;;;17.23;4.83;;;;;;;11.59;100.00;101536.19;5051098;28;20033;-79
2023/09/30 00:34:38;;;;;;;21.57;4.17;;;;;;;11.69;100.00;101549.50;5051035;28;20021;-78
2023/09/30 00:37:03;;;;;;;18.83;4.72;;;;;;;11.64;100.00;101552.63;5052767;28;20444;-75
2023/09/30 00:39:30;;;;;;;23.60;5.17;;;;;;;11.64;100.00;101549.13;5047780;28;20036;-76
2023/09/30 00:41:59;;;;;;;14.73;3.60;;;;;;;11.64;100.00;101549.97;5045724;28;20119;-76
2023/09/30 00:44:28;;;;;;;15.60;4.38;;;;;;;11.67;100.00;101557.66;5049171;28;20095;-75
2023/09/30 00:46:56;;;;;;;21.85;4.72;;;;;;;11.70;100.00;101561.88;5048058;28;20041;-79
2023/09/30 00:49:24;;;;;;;19.80;4.80;;;;;;;11.65;100.00;101556.13;5051948;28;20041;-75
2023/09/30 00:51:51;;;;;;;25.58;4.40;;;;;;;11.68;100.00;101550.47;5046183;28;20033;-76
2023/09/30 00:54:17;;;;;;;20.35;5.40;;;;;;;11.61;100.00;101560.94;5051752;28;20013;-79
2023/09/30 00:56:47;;;;;;;14.50;3.92;;;;;;;11.72;100.00;101563.41;5054375;28;20045;-79
2023/09/30 00:59:15;;;;;;;24.88;5.78;;;;;;;11.62;100.00;101562.63;5048246;28;20059;-77
2023/09/30 01:01:44;;;;;;;23.67;4.35;;;;;;;11.56;100.00;101553.34;5050958;28;20449;-79
2023/09/30 01:04:14;;;;;;;28.58;4.60;;;;;;;11.58;100.00;101550.53;5053716;28;20033;-77
2023/09/30 01:06:40;;;;;;;19.52;5.00;;;;;;;11.49;100.00;101548.75;5050997;28;20021;-77
2023/09/30 01:09:07;;;;;;;25.35;4.90;;;;;;;11.56;100.00;101557.88;5053645;28;20419;-79
2023/09/30 01:11:33;;;;;;;20.92;4.60;;;;;;;11.54;100.00;101549.16;5055148;28;20092;-78
2023/09/30 01:13:58;;;;;;;16.45;4.53;;;;;;;11.49;100.00;101552.28;5056130;28;20044;-76
2023/09/30 01:16:23;;;;;;;27.43;4.93;;;;;;;11.55;100.00;101553.53;5044132;28;20037;-75
2023/09/30 01:18:49;;;;;;;20.97;4.13;;;;;;;11.62;100.00;101560.78;5048066;28;20500;-77
2023/09/30 01:21:15;;;;;;;27.75;4.97;;;;;;;11.69;100.00;101562.88;5031864;28;20064;-76
2023/09/30 01:23:41;;;;;;;17.98;4.43;;;;;;;11.55;100.00;101556.19;5048408;28;20022;-78
2023/09/30 01:26:12;;;;;;;26.23;4.75;;;;;;;11.86;100.00;101585.31;5053629;28;20032;-78
2023/09/30 01:28:38;;;;;;;29.35;5.45;;;;;;;11.83;100.00;101565.03;5053211;28;20404;-78
2023/09/30 01:31:04;;;;;;;20.08;5.30;;;;;;;11.99;100.00;101569.75;5050993;28;20593;-78
2023/09/30 01:33:30;;;;;;;14.90;3.50;;;;;;;12.09;100.00;101573.19;5052774;28;20059;-77
2023/09/30 01:35:56;;;;;;;29.33;6.10;;;;;;;12.06;100.00;101552.09;5048749;28;20020;-78
2023/09/30 01:38:21;;;;;;;21.47;3.67;;;;;;;12.15;100.00;101547.66;5037027;28;20044;-79
2023/09/30 01:40:47;;;;;;;16.57;3.37;;;;;;;12.16;100.00;101550.19;5051918;28;20029;-76
2023/09/30 01:43:13;;;;;;;18.40;3.58;;;;;;;12.09;100.00;101538.41;5051844;28;20291;-77
2023/09/30 01:45:39;;;;;;;;;;;;;;;12.33;100.00;101551.16;5055924;28;20051;-75
2023/09/30 01:48:05;;;;;;;20.52;3.92;;;;;;;12.32;100.00;101532.59;5046124;28;19913;-77
2023/09/30 01:50:31;;;;;;;15.98;5.35;;;;;;;12.43;100.00;101537.69;5036910;28;20027;-77
2023/09/30 01:52:58;;;;;;;25.45;5.88;;;;;;;12.36;100.00;101536.63;5037418;28;20033;-79
2023/09/30 01:55:23;;;;;;;26.80;6.10;;;;;;;12.39;100.00;101539.00;5046684;28;20035;-75
2023/09/30 01:57:48;;;;;;;16.37;3.77;;;;;;;12.42;100.00;101544.03;5050790;28;20082;-75
2023/09/30 02:00:14;;;;;;;23.80;3.67;;;;;;;12.40;100.00;101529.97;5051261;28;20115;-77
2023/09/30 02:02:41;;;;;;;19.13;3.97;;;;;;;12.39;100.00;101522.94;5053378;28;20036;-77
2023/09/30 02:05:08;;;;;;;14.45;4.55;;;;;;;12.43;100.00;101529.63;5056977;28;20469;-78
2023/09/30 02:07:34;;;;;;;16.02;4.05;;;;;;;12.43;100.00;101533.19;5044437;28;20037;-76
2023/09/30 02:10:01;;;;;;;16.33;3.35;;;;;;;12.38;100.00;101548.03;5054337;28;20047;-78
2023/09/30 02:12:29;;;;;;;;;;;;;;;12.32;100.00;101545.97;5050731;28;20037;-79
2023/09/30 02:14:54;;;;;;;16.30;3.38;;;;;;;12.27;100.00;101540.22;5053806;28;19920;-79
2023/09/30 02:17:20;;;;;;;20.97;4.20;;;;;;;12.31;100.00;101544.28;5043667;28;20446;-77
2023/09/30 02:19:45;;;;;;;16.67;4.47;;;;;;;12.10;100.00;101545.44;5044874;28;20025;-77
2023/09/30 02:22:11;;;;;;;21.92;3.78;;;;;;;12.16;100.00;101560.88;5052445;28;20123;-78
2023/09/30 02:24:37;;;;;;;25.83;4.45;;;;;;;12.27;100.00;101562.50;5049795;28;20388;-79
2023/09/30 02:27:02;;;;;;;15.27;3.40;;;;;;;12.31;100.00;101553.16;5047501;28;20029;-77
2023/09/30 02:29:28;;;;;;;12.87;3.93;;;;;;;12.38;100.00;101564.09;5051704;28;20020;-77
2023/09/30 02:31:54;;;;;;;18.97;4.27;;;;;;;12.42;100.00;101552.06;5045478;28;20295;-79
2023/09/30 02:34:20;;;;;;;18.65;5.65;;;;;;;12.45;100.00;101554.44;5053412;28;20527;-77
2023/09/30 02:36:45;;;;;;;17.00;3.27;;;;;;;12.41;100.00;101553.09;5045323;28;20030;-77
2023/09/30 02:39:10;;;;;;;22.83;4.83;;;;;;;12.40;100.00;101546.03;5047569;28;20391;-79
2023/09/30 02:41:37;;;;;;;28.27;4.07;;;;;;;12.29;100.00;101543.59;5051612;28;20044;-78
2023/09/30 02:44:03;;;;;;;19.83;5.22;;;;;;;12.16;100.00;101558.22;5047974;28;20036;-77
2023/09/30 02:46:29;;;;;;;;;;;;;;;12.23;100.00;101561.94;5045017;28;20033;-76
2023/09/30 02:48:54;;;;;;;24.90;4.20;;;;;;;12.12;100.00;101562.19;5052410;28;19909;-76
2023/09/30 02:51:19;;;;;;;20.33;3.93;;;;;;;12.11;100.00;101568.53;5047530;28;20116;-79
2023/09/30 02:53:46;;;;;;;10.97;2.80;;;;;;;11.99;100.00;101575.13;5045122;28;20033;-77
2023/09/30 02:56:11;;;;;;;25.25;4.60;;;;;;;12.12;100.00;101591.63;5052439;28;20288;-79
2023/09/30 02:58:38;;;;;;;17.08;4.35;;;;;;;12.08;100.00;101587.59;5051207;28;20027;-77
2023/09/30 03:01:03;;;;;;;;;;;;;;;12.12;100.00;101596.13;5051853;28;20046;-75
2023/09/30 03:03:30;;;;;;;;;;;;;;;11.98;100.00;101592.16;5051446;28;19912;-75
2023/09/30 03:05:57;;;;;;;19.73;5.45;;;;;;;11.78;100.00;101591.41;5046540;28;19912;-77
2023/09/30 03:08:24;;;;;;;16.05;3.88;;;;;;;11.73;100.00;101594.53;5045742;28;20377;-78
2023/09/30 03:10:50;;;;;;;25.10;5.40;;;;;;;11.68;100.00;101602.13;5045380;28;20036;-79
2023/09/30 03:13:15;;;;;;;27.65;6.90;;;;;;;11.76;100.00;101612.94;5051461;28;20036;-78
2023/09/30 03:15:41;;;;;;;27.80;5.33;;;;;;;11.62;100.00;101618.81;5047497;28;20064;-78
2023/09/30 03:18:06;;;;;;;25.23;4.87;;;;;;;11.71;100.00;101623.25;5052151;28;20103;-77
2023/09/30 03:20:31;;;;;;;29.10;5.17;;;;;;;11.69;100.00;101622.56;5046312;28;20209;-77
2023/09/30 03:22:57;;;;;;;17.10;3.70;;;;;;;11.66;100.00;101622.00;5049179;28;20032;-77
2023/09/30 03:25:23;;;;;;;19.38;4.57;;;;;;;11.61;100.00;101630.47;5062673;28;20052;-78
2023/09/30 03:27:49;;;;;;;24.13;5.10;;;;;;;11.63;100.00;101633.84;5044740;28;20468;-76
2023/09/30 03:30:15;;;;;;;27.33;5.35;;;;;;;11.54;100.00;101618.69;5047499;28;20047;-76
2023/09/30 03:32:42;;;;;;;24.08;5.43;;;;;;;11.63;100.00;101633.84;5048022;28;20025;-76
2023/09/30 03:35:10;;;;;;;16.52;4.18;;;;;;;11.66;100.00;101628.22;5048220;28;20039;-77
2023/09/30 03:37:41;;;;;;;20.05;4.65;;;;;;;11.61;100.00;101617.09;5043393;28;20029;-77
2023/09/30 03:40:12;;;;;;;15.15;3.85;;;;;;;11.67;100.00;101635.25;5046834;28;20039;-79
2023/09/30 03:42:39;;;;;;;21.98;4.57;;;;;;;11.65;100.00;101631.88;5049177;28;20095;-76
2023/09/30 03:45:07;;;;;;;17.02;4.28;;;;;;;11.69;100.00;101643.97;5049304;28;20024;-78
2023/09/30 03:47:34;;;;;;;17.50;4.13;;;;;;;11.60;100.00;101640.34;5045345;28;20049;-76
2023/09/30 03:49:59;;;;;;;22.20;5.55;;;;;;;11.60;100.00;101631.47;5051208;28;20450;-76
2023/09/30 03:52:26;;;;;;;18.27;4.97;;;;;;;11.68;100.00;101636.91;5044280;28;20037;-76
2023/09/30 03:54:51;;;;;;;;;;;;;;;11.68;100.00;101639.59;5043034;28;20400;-77
2023/09/30 03:57:17;;;;;;;22.42;4.10;;;;;;;11.68;100.00;101650.28;5051591;28;19909;-78
2023/09/30 03:59:42;;;;;;;19.23;4.80;;;;;;;11.70;100.00;101645.63;5047676;28;20097;-77
2023/09/30 04:02:08;;;;;;;23.70;5.30;;;;;;;11.68;100.00;101641.44;5052059;28;20194;-77
2023/09/30 04:04:34;;;;;;;19.80;5.27;;;;;;;11.71;100.00;101658.03;5050291;28;20040;-75
2023/09/30 04:06:59;;;;;;;23.08;5.00;;;;;;;11.53;100.00;101627.72;5050228;28;20033;-77
2023/09/30 04:09:25;;;;;;;23.17;4.73;;;;;;;11.62;100.00;101654.41;5046089;28;20137;-77
2023/09/30 04:11:51;;;;;;;21.63;5.25;;;;;;;11.66;100.00;101654.97;5044387;28;20024;-79
2023/09/30 04:14:17;;;;;;;20.30;4.00;;;;;;;11.64;100.00;101661.47;5044152;28;20159;-78
2023/09/30 04:16:42;;;;;;;26.17;4.90;;;;;;;11.71;100.00;101663.38;5039846;28;20017;-77
2023/09/30 04:19:10;;;;;;;15.63;4.57;;;;;;;11.62;100.00;101669.63;5044345;28;20034;-78
2023/09/30 04:21:38;;;;;;;25.85;5.32;;;;;;;11.61;100.00;101659.88;5045143;28;20025;-77
2023/09/30 04:24:04;;;;;;;24.20;5.57;;;;;;;11.63;100.00;101663.25;5045298;28;20068;-76
2023/09/30 04:26:30;;;;;;;19.50;4.75;;;;;;;11.59;100.00;101656.56;5040164;28;20060;-76
2023/09/30 04:28:55;;;;;;;23.53;6.57;;;;;;;11.54;100.00;101646.28;5044404;28;20575;-78
2023/09/30 04:31:23;;;;;;;19.70;4.27;;;;;;;11.53;100.00;101649.09;5051791;28;20397;-77
2023/09/30 04:33:52;;;;;;;20.02;5.45;;;;;;;11.64;100.00;101662.28;5055494;28;20432;-75
2023/09/30 04:36:18;;;;;;;19.88;4.25;;;;;;;11.54;100.00;101648.97;5044959;28;20033;-78
2023/09/30 04:38:43;;;;;;;24.83;6.07;;;;;;;11.51;100.00;101651.06;5053950;28;20021;-76
2023/09/30 04:41:09;;;;;;;25.77;6.80;;;;;;;11.54;100.00;101657.00;5048681;28;20038;-75
2023/09/30 04:43:34;;;;;;;23.90;6.53;;;;;;;11.63;100.00;101671.28;5054513;28;20119;-77
2023/09/30 04:46:01;;;;;;;27.92;6.47;;;;;;;11.59;100.00;101670.75;5051935;28;20029;-76
2023/09/30 04:48:26;;;;;;;22.45;5.10;;;;;;;11.73;100.00;101690.84;5054543;28;20479;-78
2023/09/30 04:50:52;;;;;;;24.95;5.22;;;;;;;11.72;100.00;101697.16;5047706;28;20084;-78
2023/09/30 04:53:18;;;;;;;27.08;5.93;;;;;;;11.73;100.00;101688.16;5070443;28;20055;-75
2023/09/30 04:55:44;;;;;;;24.30;5.40;;;;;;;11.76;100.00;101687.03;5051487;28;20466;-76
2023/09/30 04:58:11;;;;;;;23.38;5.28;;;;;;;11.60;100.00;101676.94;5050729;28;20119;-79
2023/09/30 05:00:36;;;;;;;21.88;5.45;;;;;;;11.71;100.00;101668.75;5055238;28;20025;-77
2023/09/30 05:03:02;;;;;;;26.17;5.97;;;;;;;11.62;100.00;101683.84;5053992;28;20033;-77
2023/09/30 05:05:28;;;;;;;18.55;4.88;;;;;;;11.61;100.00;101673.25;5047504;28;20370;-77
2023/09/30 05:07:54;;;;;;;29.33;6.90;;;;;;;11.65;100.00;101680.00;5055731;28;20550;-76
2023/09/30 05:10:20;;;;;;;;;;;;;;;11.69;100.00;101689.44;5051783;28;20047;-77
2023/09/30 05:12:45;;;;;;;16.95;6.15;;;;;;;11.71;100.00;101695.50;5050441;28;20007;-77
2023/09/30 05:15:13;;;;;;;33.97;6.20;;;;;;;11.77;100.00;101707.41;5048807;28;20033;-76
2023/09/30 05:17:38;;;;;;;26.88;5.90;;;;;;;11.80;100.00;101712.50;5050501;28;20032;-76
2023/09/30 05:20:06;;;;;;;29.73;6.03;;;;;;;11.83;100.00;101705.00;5063345;28;20078;-74
2023/09/30 05:22:33;;;;;;;24.92;7.13;;;;;;;11.82;100.00;101703.34;5053180;28;20095;-77
2023/09/30 05:24:59;;;;;;;25.95;6.47;;;;;;;11.87;100.00;101696.69;5047660;28;20032;-76
2023/09/30 05:27:24;;;;;;;25.35;5.45;;;;;;;11.82;100.00;101697.13;5055128;28;20040;-77
2023/09/30 05:29:50;;;;;;;23.00;5.47;;;;;;;11.88;100.00;101691.22;5053001;28;20024;-79
2023/09/30 05:32:15;;;;;;;25.50;6.17;;;;;;;11.86;100.00;101686.97;5050664;28;20051;-79
2023/09/30 05:34:40;;;;;;;36.03;8.80;;;;;;;11.93;100.00;101698.81;5049928;28;20017;-78
2023/09/30 05:37:06;;;;;;;24.47;6.17;;;;;;;11.93;100.00;101707.66;5047968;28;20033;-78
2023/09/30 05:39:31;;;;;;;15.77;5.07;;;;;;;11.95;100.00;101718.22;5053462;28;20125;-77
2023/09/30 05:41:59;;;;;;;30.73;7.83;;;;;;;12.03;100.00;101708.47;5055340;23;20082;-84
2023/09/30 05:44:27;;;;;;;22.33;5.70;;;;;;;12.07;100.00;101709.00;5006274;28;20058;-86
2023/09/30 05:46:53;;;;;;;24.10;5.53;;;;;;;12.03;100.00;101721.00;4994173;28;20397;-85
2023/09/30 05:49:19;;;;;;;27.23;6.50;;;;;;;12.09;100.00;101714.22;5003389;28;20038;-87
2023/09/30 05:51:45;;;;;;;31.50;7.32;;;;;;;12.11;100.00;101717.59;4989209;28;20029;-85
2023/09/30 05:54:11;;;;;;;24.98;5.80;;;;;;;12.17;100.00;101709.78;4980286;28;20025;-86
2023/09/30 05:56:38;;;;;;;20.35;5.50;;;;;;;12.11;100.00;101710.41;4992341;28;20045;-85
2023/09/30 05:59:05;;;;;;;28.23;6.78;;;;;;;12.23;100.00;101711.88;4991742;28;20030;-87
2023/09/30 06:01:30;;;;;;;;;;;;;;;12.20;100.00;101719.38;4972850;28;20045;-85
2023/09/30 06:03:57;;;;;;;24.73;7.15;;;;;;;12.00;100.00;101705.25;4996631;28;20017;-84
2023/09/30 06:06:23;;;;;;;22.33;5.50;;;;;;;12.08;100.00;101713.41;4981454;28;20579;-85
2023/09/30 06:08:49;;;;;;;14.95;5.18;;;;;;;12.15;100.00;101725.19;5015873;28;20040;-85
2023/09/30 06:11:24;;;;;;;24.60;5.80;;;;;;;12.16;100.00;101732.22;4999660;28;20096;-85
2023/09/30 06:13:54;;;;;;;22.15;5.13;;;;;;;12.29;100.00;101731.00;4989007;28;20031;-85
2023/09/30 06:16:20;;;;;;;25.60;5.40;;;;;;;12.29;100.00;101729.19;4986121;28;20042;-86
2023/09/30 06:18:45;;;;;;;21.83;5.35;;;;;;;12.23;100.00;101727.13;4980007;28;20026;-85
2023/09/30 06:21:14;;;;;;;22.13;5.20;;;;;;;12.28;100.00;101735.53;5037122;23;20140;-76
2023/09/30 06:23:40;;;;;;;23.17;5.20;;;;;;;12.38;100.00;101746.19;5036696;28;20451;-76
2023/09/30 06:26:05;;;;;;;24.70;5.55;;;;;;;12.39;100.00;101747.88;5038992;28;20348;-76
2023/09/30 06:28:33;;;;;;;22.10;6.30;;;;;;;12.35;100.00;101741.13;5042953;28;20037;-76
2023/09/30 06:30:59;;;;;;;17.02;4.80;;;;;;;12.42;100.00;101745.72;5038422;28;20080;-76
2023/09/30 06:33:25;;;;;;;30.25;6.97;;;;;;;12.54;100.00;101751.72;5040614;28;20036;-76
2023/09/30 06:35:50;;;;;;;26.33;7.28;;;;;;;12.60;100.00;101745.78;5040966;28;20499;-77
2023/09/30 06:38:19;;;;;;;22.73;5.30;;;;;;;12.61;100.00;101743.94;5033807;28;20033;-76
2023/09/30 06:40:48;;;;;;;18.40;4.43;;;;;;;12.83;100.00;101745.31;5045433;28;20472;-76
2023/09/30 06:43:17;;;;;;;17.48;4.65;;;;;;;12.93;100.00;101743.41;5041870;28;20059;-77
2023/09/30 06:45:44;;;;;;;13.73;4.35;;;;;;;13.17;100.00;101741.94;5044457;28;20020;-76
2023/09/30 06:48:14;;;;;;;22.38;3.95;;;;;;;13.13;100.00;101743.22;5040754;28;20029;-77
2023/09/30 06:50:48;;;;;;;27.50;4.75;;;;;;;13.31;100.00;101752.13;5055507;28;20495;-77
2023/09/30 06:53:18;;;;;;;19.10;4.57;;;;;;;13.87;100.00;101760.72;5034982;28;20507;-77
2023/09/30 06:55:43;;;;;;;19.63;4.95;;;;;;;14.03;100.00;101739.31;5044319;28;20033;-78
2023/09/30 06:58:10;;;;;;;17.33;3.60;;;;;;;14.23;100.00;101731.84;5036978;28;20018;-76
2023/09/30 07:00:36;;;;;;;19.05;4.32;;;;;;;14.28;100.00;101709.88;5035039;28;20033;-78
2023/09/30 07:03:02;;;;;;;18.25;4.05;;;;;;;14.61;100.00;101704.59;5031978;28;20123;-77
2023/09/30 07:05:30;;;;;;;21.60;4.13;;;;;;;14.28;100.00;101670.44;5036969;28;20021;-77
2023/09/30 07:07:56;;;;;;;17.60;3.78;;;;;;;14.67;100.00;101698.56;5034932;28;20044;-77
2023/09/30 07:10:21;;;;;;;12.93;3.90;;;;;;;14.90;100.00;101683.47;5055521;28;20024;-77
2023/09/30 07:12:47;;;;;;;26.67;5.87;;;;;;;14.77;100.00;101656.22;5033970;28;20029;-78
2023/09/30 07:15:13;;;;;;;23.10;4.07;;;;;;;15.10;100.00;101658.91;5032896;28;20029;-77
2023/09/30 07:17:39;;;;;;;13.00;3.95;;;;;;;14.98;100.00;101620.75;5043793;28;20395;-77
2023/09/30 07:20:06;;;;;;;15.63;4.15;;;;;;;14.53;100.00;101614.03;5037647;28;20036;-78
2023/09/30 07:22:33;;;;;;;23.02;3.97;;;;;;;14.41;100.00;101615.38;5040547;28;20654;-77
2023/09/30 07:24:58;;;;;;;16.10;4.10;;;;;;;14.57;100.00;101637.75;5038400;28;20565;-78
2023/09/30 07:27:24;;;;;;;20.73;5.33;;;;;;;14.34;100.00;101650.97;5036521;28;20109;-78
2023/09/30 07:29:50;;;;;;;15.73;4.70;;;;;;;14.31;100.00;101666.59;5039808;28;20059;-78
2023/09/30 07:32:16;;;;;;;11.18;3.35;;;;;;;14.29;100.00;101674.78;5038950;28;20029;-77
2023/09/30 07:34:41;;;;;;;16.02;4.55;;;;;;;14.30;100.00;101668.41;5035782;28;20037;-77
2023/09/30 07:37:06;;;;;;;20.40;3.83;;;;;;;14.65;100.00;101703.25;5036778;28;20617;-77
2023/09/30 07:39:32;;;;;;;22.37;3.97;;;;;;;14.88;100.00;101673.88;5040355;28;20029;-76
2023/09/30 07:41:57;;;;;;;16.80;3.43;;;;;;;15.16;100.00;101669.81;5049507;28;20458;-77
2023/09/30 07:44:23;;;;;;;12.57;3.80;;;;;;;15.49;100.00;101664.38;5054110;28;20322;-78
2023/09/30 07:46:48;;;;;;;11.77;3.17;;;;;;;15.86;100.00;101649.47;5055104;28;20064;-79
2023/09/30 07:49:13;;;;;;;17.70;3.97;;;;;;;15.75;100.00;101574.47;5036242;28;20056;-78
2023/09/30 07:51:41;;;;;;;17.37;3.93;;;;;;;15.61;100.00;101579.53;5038635;28;20033;-77
2023/09/30 07:54:07;;;;;;;19.35;3.78;;;;;;;16.06;100.00;101565.53;5040930;28;20483;-77
2023/09/30 07:56:34;;;;;;;17.70;3.13;;;;;;;16.03;100.00;101494.84;5036879;28;20143;-77
2023/09/30 07:58:59;;;;;;;16.85;3.47;;;;;;;16.72;100.00;101517.34;5035577;28;20049;-77
2023/09/30 08:01:24;;;;;;;13.93;3.70;;;;;;;17.41;100.00;101463.91;5042075;28;20108;-78
2023/09/30 08:03:50;;;;;;;15.50;3.90;;;;;;;17.73;100.00;101337.53;5031807;28;20334;-78
2023/09/30 08:06:16;;;;;;;16.90;3.43;;;;;;;17.91;100.00;101172.31;5036024;28;20053;-78
2023/09/30 08:08:41;;;;;;;13.80;4.18;;;;;;;16.89;100.00;101125.13;5038751;28;20052;-77
2023/09/30 08:11:06;;;;;;;14.30;3.20;;;;;;;17.27;100.00;101259.69;5037864;28;20065;-77
2023/09/30 08:13:35;;;;;;;10.40;2.63;;;;;;;17.72;100.00;101250.31;5040736;28;20032;-79
2023/09/30 08:16:00;;;;;;;15.30;3.15;;;;;;;18.11;100.00;101157.03;5040265;28;20312;-78
2023/09/30 08:18:25;;;;;;;12.37;4.37;;;;;;;17.88;100.00;101130.31;5045908;28;20069;-78
2023/09/30 08:20:51;;;;;;;12.83;3.87;;;;;;;18.59;100.00;101157.97;5038363;28;20116;-78
2023/09/30 08:23:16;;;;;;;18.43;3.33;;;;;;;18.77;100.00;100922.94;5047321;28;20025;-79
2023/09/30 08:25:42;;;;;;;19.60;5.20;;;;;;;19.85;100.00;100978.28;5038143;28;20554;-78
2023/09/30 08:28:09;;;;;;;14.43;3.00;;;;;;;19.26;100.00;100856.53;5040850;28;20025;-78
2023/09/30 08:30:35;;;;;;;21.00;3.38;;;;;;;19.57;100.00;100722.19;5040710;28;20123;-78
2023/09/30 08:33:03;;;;;;;;;;;;;;;19.63;100.00;100856.72;5037519;28;20021;-78
2023/09/30 08:35:28;;;;;;;13.48;3.47;;;;;;;18.71;100.00;100734.47;5041414;28;19973;-78
2023/09/30 08:37:54;;;;;;;12.47;2.50;;;;;;;19.83;100.00;100894.53;5038089;28;20032;-77
2023/09/30 08:40:22;;;;;;;12.93;2.77;;;;;;;20.45;100.00;100712.94;5040928;28;20036;-78
2023/09/30 08:42:52;;;;;;;12.98;2.83;;;;;;;20.09;100.00;100695.66;5038172;28;20333;-78
2023/09/30 08:45:18;;;;;;;14.88;2.88;;;;;;;19.75;100.00;100635.59;5043767;28;20264;-79
2023/09/30 08:47:45;;;;;;;10.73;2.72;;;;;;;20.29;100.00;100811.97;5042432;28;20087;-78
2023/09/30 08:50:12;;;;;;;18.70;3.80;;;;;;;20.26;100.00;100833.28;5039356;28;20037;-78
2023/09/30 08:52:41;;;;;;;;;;;;;;;21.16;100.00;100737.63;5043373;28;20021;-78
2023/09/30 08:55:08;;;;;;;8.25;2.70;;;;;;;20.26;100.00;100532.41;5038976;28;19917;-78
2023/09/30 08:57:39;;;;;;;15.93;4.32;;;;;;;21.00;100.00;100768.97;5032592;28;20030;-79
2023/09/30 09:00:06;;;;;;;13.48;2.53;;;;;;;20.89;100.00;100678.31;5051316;28;20033;-76
2023/09/30 09:02:34;;;;;;;16.88;4.35;;;;;;;21.21;100.00;100656.28;5035251;28;20041;-79
2023/09/30 09:05:01;;;;;;;14.02;3.33;;;;;;;21.10;100.00;100567.56;5036525;28;20091;-79
2023/09/30 09:07:27;;;;;;;10.57;2.88;;;;;;;20.79;100.00;100507.13;5041825;28;20033;-79
2023/09/30 09:10:13;;;;;;;11.20;3.37;;;;;;;21.75;100.00;100589.09;5041754;28;20226;-76
2023/09/30 09:12:39;;;;;;;15.38;2.72;;;;;;;21.52;100.00;100369.97;5036366;28;20069;-78
2023/09/30 09:15:06;;;;;;;;;;;;;;;21.84;100.00;100302.31;5031788;28;20083;-79
2023/09/30 09:17:45;;;;;;;9.82;2.55;;;;;;;20.91;100.00;100623.81;5037379;28;19919;-78
2023/09/30 09:20:14;;;;;;;17.60;3.95;;;;;;;21.18;100.00;100527.28;5041773;28;20037;-78
2023/09/30 09:22:44;;;;;;;12.20;2.30;;;;;;;21.35;100.00;100567.28;5039802;28;20040;-78
2023/09/30 09:25:10;;;;;;;13.68;2.45;;;;;;;21.02;100.00;100363.28;5041354;28;20123;-79
2023/09/30 09:27:37;;;;;;;13.27;2.67;;;;;;;21.48;100.00;100618.66;5042312;28;20068;-79
2023/09/30 09:30:14;;;;;;;13.80;3.25;;;;;;;21.67;100.00;100535.13;5035566;28;20487;-78
2023/09/30 09:32:54;;;;;;;13.50;2.78;;;;;;;21.63;100.00;100485.91;5043737;28;20129;-78
2023/09/30 09:35:21;;;;;;;13.15;2.75;;;;;;;21.39;100.00;100403.66;5042196;28;20553;-79
2023/09/30 09:38:00;;;;;;;17.52;3.58;;;;;;;20.99;100.00;100551.03;5040251;28;20025;-79
2023/09/30 09:40:30;;;;;;;13.57;3.63;;;;;;;21.26;100.00;100458.25;5035426;28;20037;-79
2023/09/30 09:42:57;;;;;;;12.30;2.90;;;;;;;21.27;100.00;100582.88;5035196;28;20036;-79
2023/09/30 09:45:23;;;;;;;;;;;;;;;21.59;100.00;100766.41;5040686;28;20044;-78
2023/09/30 09:47:48;;;;;;;15.20;3.58;;;;;;;20.70;100.00;100386.47;5034927;28;19916;-78
2023/09/30 09:50:15;;;;;;;14.52;3.30;;;;;;;20.38;100.00;100408.53;5040519;28;20029;-80
2023/09/30 09:52:41;;;;;;;;;;;;;;;20.50;100.00;100531.38;5046882;28;20140;-79
2023/09/30 09:55:08;;;;;;;11.15;3.15;;;;;;;20.43;100.00;100547.75;5038308;28;19909;-78
2023/09/30 09:57:34;;;;;;;10.50;2.38;;;;;;;20.26;100.00;100655.19;5041894;28;20032;-79
2023/09/30 10:00:05;;;;;;;16.25;3.30;;;;;;;19.28;100.00;100518.84;5035736;28;20108;-78
2023/09/30 10:02:31;;;;;;;15.10;3.55;;;;;;;20.80;100.00;100960.00;5037799;28;20044;-79
2023/09/30 10:04:56;;;;;;;14.52;3.88;;;;;;;21.07;100.00;100579.69;5040964;28;20020;-78
2023/09/30 10:07:27;;;;;;;14.68;3.63;;;;;;;21.49;100.00;100846.59;5040997;28;20033;-79
2023/09/30 10:09:53;;;;;;;14.60;2.60;;;;;;;21.37;100.00;100712.63;5037711;28;20033;-78
2023/09/30 10:12:21;;;;;;;;;;;;;;;20.61;100.00;100476.34;5036652;28;20040;-79
2023/09/30 10:14:46;;;;;;;17.60;2.80;;;;;;;21.49;100.00;100818.56;5042352;28;19919;-79
2023/09/30 10:17:12;;;;;;;13.00;2.20;;;;;;;22.58;100.00;100826.28;5032408;28;20144;-79
2023/09/30 10:20:05;;;;;;;11.43;3.63;;;;;;;21.56;100.00;100566.69;5039811;28;20049;-78
2023/09/30 10:22:30;;;;;;;13.18;3.00;;;;;;;21.00;100.00;100525.56;5035066;28;20034;-79
2023/09/30 10:24:57;;;;;;;10.80;2.57;;;;;;;20.22;100.00;100475.91;5038821;28;20458;-78
2023/09/30 10:27:29;;;;;;;9.75;3.25;;;;;;;18.97;100.00;100526.03;5040162;28;20029;-79
2023/09/30 10:30:16;;;;;;;19.45;3.35;;;;;;;19.32;100.00;100926.06;5039074;28;20568;-78
2023/09/30 10:32:50;;;;;;;15.05;2.65;;;;;;;20.11;100.00;100951.03;5036266;28;20037;-79
2023/09/30 10:35:20;;;;;;;10.73;2.63;;;;;;;20.54;100.00;100752.22;5034919;28;20561;-78
2023/09/30 10:37:47;;;;;;;9.25;2.25;;;;;;;20.40;100.00;100520.28;5041380;28;20029;-78
2023/09/30 10:40:29;;;;;;;;;;;;;;;19.92;100.00;100350.53;5034544;28;20034;-78
2023/09/30 10:42:56;;;;;;;10.98;2.50;;;;;;;19.71;100.00;100609.19;5038752;28;19913;-78
2023/09/30 10:45:40;;;;;;;8.77;3.47;;;;;;;19.10;100.00;100678.47;5039202;28;20490;-78
2023/09/30 10:48:24;;;;;;;11.68;3.10;;;;;;;18.97;100.00;100755.97;5044239;28;20032;-77
2023/09/30 10:50:51;;;;;;;9.40;2.47;;;;;;;18.65;100.00;100644.22;5041473;28;20029;-78
2023/09/30 10:53:18;;;;;;;16.65;3.35;;;;;;;18.36;100.00;100810.53;5032978;28;20109;-79
2023/09/30 10:55:45;;;;;;;21.02;3.05;;;;;;;18.25;100.00;100803.88;5036114;28;20492;-79
2023/09/30 10:58:12;;;;;;;9.23;2.25;;;;;;;18.18;100.00;100951.69;5035297;28;20302;-79
2023/09/30 11:00:38;;;;;;;12.85;2.40;;;;;;;18.59;100.00;101137.19;5036840;28;20033;-78
2023/09/30 11:03:05;;;;;;;13.60;2.50;;;;;;;19.29;100.00;101051.03;5043753;28;20043;-79
2023/09/30 11:05:34;;;;;;;10.98;2.05;;;;;;;18.81;100.00;100813.28;5035063;28;20348;-79
2023/09/30 11:08:03;;;;;;;14.25;3.15;;;;;;;18.50;100.00;101063.56;5039120;28;20029;-80
2023/09/30 11:10:29;;;;;;;9.50;2.28;;;;;;;18.01;100.00;101082.81;5041921;28;20103;-80
2023/09/30 11:12:56;;;;;;;11.37;2.27;;;;;;;18.09;100.00;101215.00;5033936;28;20029;-78